Time;durP1;ratioP1;P1;durP2;ratioP2;P2;SDS_P1;SDS_P2;PMS_P1;PMS_P2;Temp;Humidity;BMP_temperature;BMP_pressure;BME280_temperature;BME280_humidity;BME280_pressure;Samples;Min_cycle;Max_cycle;Signal;HPM_P1;HPM_P2
2022/10/06 00:09:45;;;;;;;3.4;6.8;;;;;;;9.4;83.3;99440;;;;
2022/10/06 00:20:45;;;;;;;3.4;6.8;;;;;;;9.2;82.7;99450;;;;
2022/10/06 00:30:45;;;;;;;3.4;6;;;;;;;9.1;83.1;99450;;;;
2022/10/06 00:41:45;;;;;;;3.4;6;;;;;;;8.8;82.9;99460;;;;
2022/10/06 00:52:45;;;;;;;3.4;6;;;;;;;8.5;82.9;99470;;;;
2022/10/06 01:02:45;;;;;;;4.5;8.1;;;;;;;8.3;83.5;99480;;;;
2022/10/06 01:13:45;;;;;;;4.5;8.1;;;;;;;8.1;83.7;99490;;;;
2022/10/06 01:24:45;;;;;;;4.5;8.1;;;;;;;7.8;83.9;99500;;;;
2022/10/06 01:34:45;;;;;;;2.6;5;;;;;;;7.6;83.8;99520;;;;
2022/10/06 01:45:45;;;;;;;2.6;5;;;;;;;7.5;85.1;99530;;;;
2022/10/06 01:55:45;;;;;;;2.6;5;;;;;;;7.5;86.2;99530;;;;
2022/10/06 02:06:45;;;;;;;6.2;12.3;;;;;;;7.8;88.1;99520;;;;
2022/10/06 02:16:45;;;;;;;6.2;12.3;;;;;;;8;89.4;99530;;;;
2022/10/06 02:26:45;;;;;;;6.2;12.3;;;;;;;8.1;89.5;99530;;;;
2022/10/06 02:37:45;;;;;;;9.1;14.2;;;;;;;8.1;88.9;99530;;;;
2022/10/06 02:47:45;;;;;;;9.1;14.2;;;;;;;8.2;89.6;99540;;;;
2022/10/06 02:58:46;;;;;;;9.1;14.2;;;;;;;8.3;89.5;99530;;;;
2022/10/06 03:08:45;;;;;;;7.7;12.8;;;;;;;8.2;89;99540;;;;
2022/10/06 03:18:45;;;;;;;7.7;12.8;;;;;;;8.1;88.8;99540;;;;
2022/10/06 03:29:45;;;;;;;6.7;9.6;;;;;;;8.1;89.4;99540;;;;
2022/10/06 03:40:45;;;;;;;6.7;9.6;;;;;;;8;89.3;99550;;;;
2022/10/06 03:50:46;;;;;;;6.7;9.6;;;;;;;8;89;99540;;;;
2022/10/06 04:01:45;;;;;;;5.4;9.2;;;;;;;7.9;89.1;99550;;;;
2022/10/06 04:12:45;;;;;;;5.4;9.2;;;;;;;7.9;89.5;99550;;;;
2022/10/06 04:23:45;;;;;;;5.4;9.2;;;;;;;7.9;89.9;99550;;;;
2022/10/06 04:33:45;;;;;;;5.6;9.4;;;;;;;7.9;90;99560;;;;
2022/10/06 04:44:45;;;;;;;5.6;9.4;;;;;;;7.8;89.8;99570;;;;
2022/10/06 04:55:45;;;;;;;5.6;9.4;;;;;;;7.7;89.4;99570;;;;
2022/10/06 05:06:46;;;;;;;6.7;10.7;;;;;;;7.7;89.2;99580;;;;
2022/10/06 05:17:45;;;;;;;6.7;10.7;;;;;;;7.7;89.1;99580;;;;
2022/10/06 05:28:45;;;;;;;6.7;10.7;;;;;;;7.8;88.9;99600;;;;
2022/10/06 05:38:45;;;;;;;6.9;12.3;;;;;;;7.9;89.1;99600;;;;
2022/10/06 05:49:45;;;;;;;6.9;12.3;;;;;;;8.3;89.8;99610;;;;
2022/10/06 06:00:45;;;;;;;8.5;12.3;;;;;;;8.8;89.8;99620;;;;
2022/10/06 06:11:45;;;;;;;8.5;12.3;;;;;;;9.1;89.6;99640;;;;
2022/10/06 06:21:45;;;;;;;8.5;12.3;;;;;;;9.7;89.5;99660;;;;
2022/10/06 06:31:47;;;;;;;12;16.8;;;;;;;9.9;88.9;99670;;;;
2022/10/06 06:41:45;;;;;;;12;16.8;;;;;;;10.4;87.9;99680;;;;
2022/10/06 06:51:48;;;;;;;12;16.8;;;;;;;11;87.4;99690;;;;
2022/10/06 07:02:45;;;;;;;12.7;19.9;;;;;;;11.5;85.8;99720;;;;
2022/10/06 07:13:45;;;;;;;12.7;19.9;;;;;;;11.9;83.8;99730;;;;
2022/10/06 07:25:17;;;;;;;12.7;19.9;;;;;;;12.1;83;99750;;;;
2022/10/06 07:34:45;;;;;;;12.9;17.7;;;;;;;12.3;82.8;99750;;;;
2022/10/06 07:45:45;;;;;;;12.9;17.7;;;;;;;12.7;82.1;99750;;;;
2022/10/06 07:55:45;;;;;;;12.9;17.7;;;;;;;13.4;81.9;99760;;;;
2022/10/06 08:06:48;;;;;;;14.5;20.5;;;;;;;13.9;79.8;99770;;;;
2022/10/06 08:16:45;;;;;;;14.5;20.5;;;;;;;14;78.5;99790;;;;
2022/10/06 08:26:45;;;;;;;14.5;20.5;;;;;;;14.5;78.3;99800;;;;
2022/10/06 08:37:47;;;;;;;11.2;14;;;;;;;15.4;75.9;99810;;;;
2022/10/06 08:47:46;;;;;;;11.2;14;;;;;;;16.4;75.1;99820;;;;
2022/10/06 08:58:45;;;;;;;11.2;14;;;;;;;16.8;72.2;99810;;;;
2022/10/06 09:08:45;;;;;;;8.7;13.2;;;;;;;17.6;72.7;99820;;;;
2022/10/06 09:19:45;;;;;;;8.7;13.2;;;;;;;18.6;70;99810;;;;
2022/10/06 09:29:47;;;;;;;7.2;11.7;;;;;;;19.2;67.5;99830;;;;
2022/10/06 09:40:47;;;;;;;7.2;11.7;;;;;;;19.3;66.6;99820;;;;
2022/10/06 09:50:45;;;;;;;7.2;11.7;;;;;;;19.8;64.7;99830;;;;
2022/10/06 10:01:45;;;;;;;4.2;9.4;;;;;;;20;63.4;99850;;;;
2022/10/06 10:12:49;;;;;;;4.2;9.4;;;;;;;20.2;63.3;99840;;;;
2022/10/06 10:22:45;;;;;;;4.2;9.4;;;;;;;20.3;62.7;99840;;;;
2022/10/06 10:33:45;;;;;;;3.7;5.9;;;;;;;20.4;62.2;99850;;;;
2022/10/06 10:44:46;;;;;;;3.7;5.9;;;;;;;20.6;63.8;99840;;;;
2022/10/06 10:54:45;;;;;;;3.7;5.9;;;;;;;20.7;63.4;99830;;;;
2022/10/06 11:04:46;;;;;;;3.9;8.3;;;;;;;20.5;62.9;99850;;;;
2022/10/06 11:15:45;;;;;;;3.9;8.3;;;;;;;20.6;63;99850;;;;
2022/10/06 11:26:47;;;;;;;3.9;8.3;;;;;;;20.6;62.7;99860;;;;
2022/10/06 11:36:45;;;;;;;4.1;7.6;;;;;;;20.8;62.9;99860;;;;
2022/10/06 11:46:45;;;;;;;4.1;7.6;;;;;;;20.8;62;99850;;;;
2022/10/06 11:57:45;;;;;;;4.1;7.6;;;;;;;21.1;62.5;99850;;;;
2022/10/06 12:07:45;;;;;;;3.7;8.5;;;;;;;21.3;62;99860;;;;
2022/10/06 12:18:45;;;;;;;3.7;8.5;;;;;;;21.2;61.9;99860;;;;
2022/10/06 12:28:45;;;;;;;3.7;8.5;;;;;;;21;61.9;99870;;;;
2022/10/06 12:39:45;;;;;;;4;7.3;;;;;;;20.8;62.1;99880;;;;
2022/10/06 12:50:45;;;;;;;4;7.3;;;;;;;20.8;62.7;99880;;;;
2022/10/06 13:00:45;;;;;;;5.8;9.8;;;;;;;21;62.2;99880;;;;
2022/10/06 13:11:45;;;;;;;5.8;9.8;;;;;;;20.7;63.9;99870;;;;
2022/10/06 13:21:45;;;;;;;5.8;9.8;;;;;;;21;63.7;99880;;;;
2022/10/06 13:32:45;;;;;;;5.1;9;;;;;;;21;62.1;99870;;;;
2022/10/06 13:43:45;;;;;;;5.1;9;;;;;;;21.1;63.1;99880;;;;
2022/10/06 13:54:45;;;;;;;5.1;9;;;;;;;21.4;62.7;99880;;;;
2022/10/06 14:05:45;;;;;;;4.3;8.5;;;;;;;21.3;61.2;99890;;;;
2022/10/06 14:15:45;;;;;;;4.3;8.5;;;;;;;21.6;62.1;99890;;;;
2022/10/06 14:26:45;;;;;;;4.3;8.5;;;;;;;21.9;61;99910;;;;
2022/10/06 14:36:45;;;;;;;4.5;10.2;;;;;;;22;60.3;99910;;;;
2022/10/06 14:46:46;;;;;;;4.5;10.2;;;;;;;21.3;61.7;99920;;;;
2022/10/06 14:57:45;;;;;;;4.5;10.2;;;;;;;21;63.5;99930;;;;
2022/10/06 15:08:46;;;;;;;4.6;8;;;;;;;20.6;64.2;99930;;;;
2022/10/06 15:19:45;;;;;;;4.6;8;;;;;;;20.3;65.4;99940;;;;
2022/10/06 15:29:45;;;;;;;5.5;11.1;;;;;;;20;67.1;99950;;;;
2022/10/06 15:40:45;;;;;;;5.5;11.1;;;;;;;19.6;68.4;99960;;;;
2022/10/06 15:51:47;;;;;;;5.5;11.1;;;;;;;19.3;70;99970;;;;
2022/10/06 16:01:46;;;;;;;5.5;10.4;;;;;;;19.1;70.2;99970;;;;
2022/10/06 16:11:45;;;;;;;5.5;10.4;;;;;;;18.8;71.9;99990;;;;
2022/10/06 16:22:45;;;;;;;5.5;10.4;;;;;;;18.5;72.7;100000;;;;
2022/10/06 16:33:45;;;;;;;5.8;9.7;;;;;;;18.2;73.6;100010;;;;
2022/10/06 16:43:45;;;;;;;5.8;9.7;;;;;;;17.9;74.1;100020;;;;
2022/10/06 16:54:45;;;;;;;5.8;9.7;;;;;;;17.6;74.9;100040;;;;
2022/10/06 17:05:45;;;;;;;8;11.7;;;;;;;17.3;75.7;100060;;;;
2022/10/06 17:15:45;;;;;;;8;11.7;;;;;;;17.1;77.5;100060;;;;
2022/10/06 17:25:45;;;;;;;8;11.7;;;;;;;17;78.8;100080;;;;
2022/10/06 17:36:47;;;;;;;11.6;17;;;;;;;16.8;79.2;100100;;;;
2022/10/06 17:46:46;;;;;;;11.6;17;;;;;;;16.8;79.7;100110;;;;
2022/10/06 17:57:45;;;;;;;11.6;17;;;;;;;16.7;80;100120;;;;
2022/10/06 18:08:46;;;;;;;12.4;16.9;;;;;;;16.7;80.1;100120;;;;
2022/10/06 18:19:48;;;;;;;12.4;16.9;;;;;;;16.7;79.8;100120;;;;
2022/10/06 18:30:45;;;;;;;9.3;12.8;;;;;;;16.6;79.8;100140;;;;
2022/10/06 18:41:46;;;;;;;9.3;12.8;;;;;;;16.3;81;100150;;;;
2022/10/06 18:52:45;;;;;;;9.3;12.8;;;;;;;16.3;81.3;100160;;;;
2022/10/06 19:02:45;;;;;;;10;14.2;;;;;;;16.2;81.4;100170;;;;
2022/10/06 19:12:47;;;;;;;10;14.2;;;;;;;16.1;81.1;100170;;;;
2022/10/06 19:23:45;;;;;;;10;14.2;;;;;;;16;81.1;100190;;;;
2022/10/06 19:34:45;;;;;;;11.5;14.6;;;;;;;15.8;81.5;100200;;;;
2022/10/06 19:45:45;;;;;;;11.5;14.6;;;;;;;15.6;81.6;100210;;;;
2022/10/06 19:55:46;;;;;;;11.5;14.6;;;;;;;15.4;81.9;100220;;;;
2022/10/06 20:06:46;;;;;;;11.7;14.6;;;;;;;15.4;83.4;100230;;;;
2022/10/06 20:16:45;;;;;;;11.7;14.6;;;;;;;15.4;83.6;100240;;;;
2022/10/06 20:27:45;;;;;;;11.7;14.6;;;;;;;15.3;83.7;100260;;;;
2022/10/06 20:48:46;;;;;;;14.6;22.6;;;;;;;15.2;83.4;100280;;;;
2022/10/06 20:58:45;;;;;;;14.6;22.6;;;;;;;15.1;83.1;100280;;;;
2022/10/06 21:09:45;;;;;;;12.4;17.3;;;;;;;15;83.1;100280;;;;
2022/10/06 21:19:45;;;;;;;12.4;17.3;;;;;;;14.9;82.7;100280;;;;
2022/10/06 21:29:46;;;;;;;11.7;16.3;;;;;;;14.9;82.4;100280;;;;
2022/10/06 21:40:45;;;;;;;11.7;16.3;;;;;;;14.7;82.5;100290;;;;
2022/10/06 21:51:45;;;;;;;11.7;16.3;;;;;;;14.6;82.3;100290;;;;
2022/10/06 22:01:45;;;;;;;11.8;15;;;;;;;14.5;82.2;100290;;;;
2022/10/06 22:11:45;;;;;;;11.8;15;;;;;;;14.4;82.3;100290;;;;
2022/10/06 22:21:45;;;;;;;11.8;15;;;;;;;14.3;82.6;100290;;;;
2022/10/06 22:32:45;;;;;;;13.5;17.6;;;;;;;14.2;82.6;100300;;;;
2022/10/06 22:42:45;;;;;;;13.5;17.6;;;;;;;14.2;83;100300;;;;
2022/10/06 22:53:45;;;;;;;13.5;17.6;;;;;;;14;83.7;100290;;;;
2022/10/06 23:04:45;;;;;;;12.4;16.6;;;;;;;13.7;83.6;100290;;;;
2022/10/06 23:15:45;;;;;;;12.4;16.6;;;;;;;13.4;84;100290;;;;
2022/10/06 23:26:46;;;;;;;12.4;16.6;;;;;;;13;85.5;100290;;;;
2022/10/06 23:36:45;;;;;;;13.9;18.8;;;;;;;12.9;85.2;100290;;;;
2022/10/06 23:47:45;;;;;;;13.9;18.8;;;;;;;12.5;85.4;100290;;;;
2022/10/06 23:57:45;;;;;;;13.9;18.8;;;;;;;12.3;86.3;100290;;;;
